Terminal Aerodrome Forecast
Issued by NWS

Home | Current Version | Previous Version | Text Only | Print | Product List | Glossary On
Versions: 1 2 3 4 5 6 7 8 9 10 11 12 13
000
FTUS43 KLSX 301735
TAFCPS
TAF
KCPS 301735Z 3018/0118 27010G16KT P6SM BKN035
     FM302300 26007KT P6SM BKN040
     FM010500 26007KT P6SM SCT040=

USA.gov is the U.S. government's official web portal to all federal, state and local government web resources and services.